Time;durP1;ratioP1;P1;durP2;ratioP2;P2;SDS_P1;SDS_P2;PMS_P1;PMS_P2;Temp;Humidity;BMP_temperature;BMP_pressure;BME280_temperature;BME280_humidity;BME280_pressure;Samples;Min_cycle;Max_cycle;Signal;HPM_P1;HPM_P2
2021/09/07 00:02:05;;;;;;;99.00;52.55;;;16.20;88.40;;;;;;4804533;29;20171;-73
2021/09/07 00:04:33;;;;;;;102.45;49.97;;;16.20;88.50;;;;;;4804813;29;20046;-73
2021/09/07 00:07:00;;;;;;;109.75;53.35;;;16.20;88.60;;;;;;4802939;29;20051;-72
2021/09/07 00:09:28;;;;;;;108.10;53.90;;;16.20;88.60;;;;;;4804675;29;20051;-73
2021/09/07 00:11:56;;;;;;;98.93;51.88;;;16.10;88.70;;;;;;4804399;29;20552;-73
2021/09/07 00:14:24;;;;;;;106.55;53.53;;;16.10;88.80;;;;;;4804574;29;20603;-73
2021/09/07 00:16:52;;;;;;;111.32;54.80;;;16.10;88.80;;;;;;4806205;29;20065;-72
2021/09/07 00:19:20;;;;;;;103.45;51.85;;;16.10;88.90;;;;;;4811653;29;20509;-72
2021/09/07 00:21:52;;;;;;;106.15;51.67;;;16.00;88.90;;;;;;4803699;29;20054;-73
2021/09/07 00:24:20;;;;;;;107.63;53.35;;;16.00;89.00;;;;;;4793988;29;20055;-73
2021/09/07 00:26:48;;;;;;;118.13;54.60;;;16.00;89.00;;;;;;4804884;29;20059;-73
2021/09/07 00:29:16;;;;;;;100.78;52.03;;;15.90;89.10;;;;;;4818203;29;20456;-73
2021/09/07 00:31:43;;;;;;;92.50;48.35;;;15.90;89.20;;;;;;4803618;29;20501;-72
2021/09/07 00:34:12;;;;;;;114.43;56.80;;;15.80;89.30;;;;;;4804413;29;20047;-72
2021/09/07 00:36:40;;;;;;;117.07;55.60;;;15.70;89.20;;;;;;4803421;29;20059;-72
2021/09/07 00:39:13;;;;;;;112.75;56.38;;;15.70;89.30;;;;;;4805172;29;20054;-72
2021/09/07 00:51:27;;;;;;;130.07;59.42;;;15.50;89.50;;;;;;4814142;29;20062;-73
2021/09/07 00:53:55;;;;;;;98.72;51.15;;;15.50;89.60;;;;;;4803845;29;20532;-72
2021/09/07 00:56:24;;;;;;;105.03;51.70;;;15.50;89.70;;;;;;4803958;29;20062;-73
2021/09/07 00:58:52;;;;;;;105.97;51.80;;;15.50;89.70;;;;;;4804336;29;20051;-73
2021/09/07 01:01:20;;;;;;;107.13;53.03;;;15.40;89.70;;;;;;4803668;29;20405;-72
2021/09/07 01:03:49;;;;;;;123.00;57.03;;;15.40;89.80;;;;;;4804974;29;20059;-72
2021/09/07 01:06:17;;;;;;;99.05;50.60;;;15.40;89.80;;;;;;4803642;29;20054;-72
2021/09/07 01:08:44;;;;;;;128.00;57.03;;;15.40;89.90;;;;;;4803822;29;20061;-72
2021/09/07 01:11:14;;;;;;;121.22;55.00;;;15.40;90.00;;;;;;4803731;29;20058;-73
2021/09/07 01:13:42;;;;;;;109.78;53.45;;;15.30;90.10;;;;;;4801258;29;20062;-72
2021/09/07 01:16:11;;;;;;;133.05;58.22;;;15.30;90.20;;;;;;4800355;29;20051;-72
2021/09/07 01:18:40;;;;;;;97.95;49.08;;;15.30;90.20;;;;;;4803379;29;20122;-72
2021/09/07 01:21:15;;;;;;;103.72;50.22;;;15.30;90.30;;;;;;4803349;29;20050;-73
2021/09/07 01:23:46;;;;;;;107.28;50.80;;;15.30;90.30;;;;;;4805037;29;20055;-72
2021/09/07 01:26:16;;;;;;;102.50;52.30;;;15.30;90.20;;;;;;4805927;29;20063;-72
2021/09/07 01:28:45;;;;;;;127.45;56.55;;;15.20;90.30;;;;;;4841597;29;20051;-73
2021/09/07 01:31:16;;;;;;;118.95;53.53;;;15.20;90.40;;;;;;4812319;29;20066;-72
2021/09/07 01:33:47;;;;;;;128.82;54.85;;;15.20;90.50;;;;;;4804480;29;20054;-73
2021/09/07 01:36:16;;;;;;;106.47;50.53;;;15.20;90.50;;;;;;4804581;29;20062;-72
2021/09/07 01:38:43;;;;;;;94.80;47.13;;;15.10;90.50;;;;;;4806489;29;20055;-72
2021/09/07 01:41:11;;;;;;;118.55;53.90;;;15.10;90.50;;;;;;4802885;29;20093;-72
2021/09/07 01:43:39;;;;;;;112.97;52.83;;;15.00;90.60;;;;;;4806901;29;20066;-72
2021/09/07 01:46:09;;;;;;;121.07;55.28;;;15.10;90.70;;;;;;4804655;29;20051;-73
2021/09/07 01:48:36;;;;;;;120.97;53.50;;;15.00;90.70;;;;;;4805543;29;20492;-73
2021/09/07 01:51:04;;;;;;;117.45;54.25;;;15.00;90.80;;;;;;4821309;29;20058;-72
2021/09/07 01:53:32;;;;;;;111.18;51.83;;;15.00;90.80;;;;;;4803603;29;20078;-72
2021/09/07 01:56:01;;;;;;;114.47;53.88;;;15.00;90.80;;;;;;4802663;29;20059;-72
2021/09/07 01:58:28;;;;;;;114.65;53.80;;;15.00;90.90;;;;;;4804977;29;20039;-72
2021/09/07 02:00:56;;;;;;;114.65;52.13;;;14.90;90.90;;;;;;4806248;29;20050;-72
2021/09/07 02:03:24;;;;;;;129.40;53.92;;;14.90;90.90;;;;;;4806616;29;20508;-72
2021/09/07 02:05:52;;;;;;;106.63;50.50;;;14.80;90.80;;;;;;4805943;29;20496;-72
2021/09/07 02:08:20;;;;;;;110.13;52.17;;;14.80;91.00;;;;;;4805662;29;20042;-71
2021/09/07 02:10:48;;;;;;;90.30;46.92;;;14.80;91.00;;;;;;4806091;29;20054;-72
2021/09/07 02:13:17;;;;;;;93.57;47.75;;;14.70;91.10;;;;;;4805661;29;20055;-72
2021/09/07 02:15:48;;;;;;;115.03;50.33;;;14.80;91.20;;;;;;4803686;29;20043;-72
2021/09/07 02:18:17;;;;;;;101.25;49.03;;;14.70;91.20;;;;;;4805847;29;20477;-72
2021/09/07 02:20:45;;;;;;;103.38;47.30;;;14.70;91.20;;;;;;4802296;29;20050;-72
2021/09/07 02:23:13;;;;;;;103.40;49.60;;;14.70;91.20;;;;;;4804365;29;20052;-72
2021/09/07 02:25:41;;;;;;;108.68;51.22;;;14.70;91.30;;;;;;4804721;29;20057;-72
2021/09/07 02:28:12;;;;;;;109.97;50.00;;;14.60;91.30;;;;;;4805337;29;20066;-72
2021/09/07 02:30:40;;;;;;;111.38;50.17;;;14.60;91.30;;;;;;4803774;29;20069;-72
2021/09/07 02:33:08;;;;;;;106.80;49.28;;;14.60;91.30;;;;;;4805501;29;20054;-72
2021/09/07 02:35:36;;;;;;;115.72;53.08;;;14.60;91.30;;;;;;4805115;29;20043;-72
2021/09/07 02:38:04;;;;;;;134.70;57.17;;;14.50;91.30;;;;;;4803475;29;20532;-72
2021/09/07 02:40:32;;;;;;;114.13;51.88;;;14.50;91.30;;;;;;4806209;29;20038;-72
2021/09/07 02:43:02;;;;;;;127.38;56.78;;;14.50;91.40;;;;;;4823848;29;20050;-72
2021/09/07 02:45:31;;;;;;;107.40;50.42;;;14.50;91.40;;;;;;4810792;29;20511;-72
2021/09/07 02:47:59;;;;;;;120.05;53.75;;;14.50;91.40;;;;;;4806396;29;20055;-72
2021/09/07 02:50:27;;;;;;;110.55;51.85;;;14.50;91.40;;;;;;4803882;29;20076;-72
2021/09/07 02:52:55;;;;;;;111.13;52.92;;;14.40;91.40;;;;;;4804793;29;20055;-72
2021/09/07 02:55:23;;;;;;;112.80;51.88;;;14.30;91.40;;;;;;4804847;29;20493;-71
2021/09/07 02:57:51;;;;;;;95.65;47.63;;;14.30;91.50;;;;;;4804976;29;20061;-72
2021/09/07 03:00:19;;;;;;;93.43;46.22;;;14.30;91.60;;;;;;4804427;29;20051;-72
2021/09/07 03:02:47;;;;;;;105.70;50.08;;;14.30;91.60;;;;;;4805166;29;20063;-72
2021/09/07 03:05:15;;;;;;;116.25;51.00;;;14.30;91.70;;;;;;4805231;29;20046;-72
2021/09/07 03:07:44;;;;;;;101.55;46.85;;;14.30;91.70;;;;;;4806028;29;20098;-72
2021/09/07 03:10:13;;;;;;;129.07;54.65;;;14.20;91.70;;;;;;4804212;29;20405;-72
2021/09/07 03:12:41;;;;;;;114.43;52.65;;;14.20;91.70;;;;;;4805930;29;20409;-72
2021/09/07 03:15:10;;;;;;;124.72;54.10;;;14.20;91.80;;;;;;4803808;29;20058;-72
2021/09/07 03:17:38;;;;;;;127.63;55.58;;;14.20;91.70;;;;;;4819856;29;20058;-72
2021/09/07 03:20:06;;;;;;;115.63;52.35;;;14.10;91.70;;;;;;4817624;29;20560;-72
2021/09/07 03:22:35;;;;;;;130.48;55.47;;;14.10;91.80;;;;;;4805339;29;20066;-72
2021/09/07 03:25:04;;;;;;;100.85;47.85;;;14.00;91.90;;;;;;4819289;29;20118;-72
2021/09/07 03:27:33;;;;;;;95.03;46.78;;;14.00;91.90;;;;;;4805854;29;20055;-72
2021/09/07 03:30:01;;;;;;;105.28;49.95;;;14.00;92.00;;;;;;4816985;29;20047;-72
2021/09/07 03:32:29;;;;;;;110.57;48.20;;;14.00;92.00;;;;;;4804881;29;20054;-72
2021/09/07 03:34:57;;;;;;;140.15;55.03;;;14.00;92.00;;;;;;4803979;29;20536;-72
2021/09/07 03:37:25;;;;;;;126.22;55.42;;;14.00;91.90;;;;;;4805006;29;20078;-72
2021/09/07 03:39:52;;;;;;;124.78;54.10;;;14.00;92.00;;;;;;4806191;29;20047;-72
2021/09/07 03:42:21;;;;;;;115.20;51.28;;;14.00;92.10;;;;;;4804303;29;20063;-72
2021/09/07 03:44:50;;;;;;;113.15;49.20;;;14.00;92.10;;;;;;4804386;29;20125;-72
2021/09/07 03:47:19;;;;;;;106.38;47.78;;;14.00;92.00;;;;;;4805468;29;20055;-72
2021/09/07 03:49:49;;;;;;;93.05;44.83;;;13.90;92.00;;;;;;4805101;29;20076;-72
2021/09/07 03:52:19;;;;;;;108.88;47.78;;;13.90;92.00;;;;;;4801788;29;20038;-72
2021/09/07 03:54:47;;;;;;;114.03;51.38;;;13.90;92.00;;;;;;4804448;29;20070;-72
2021/09/07 03:57:15;;;;;;;120.15;53.65;;;13.90;92.00;;;;;;4807963;29;20061;-72
2021/09/07 03:59:43;;;;;;;129.68;54.42;;;13.80;92.00;;;;;;4805219;29;20406;-72
2021/09/07 04:02:12;;;;;;;138.07;54.80;;;13.90;92.10;;;;;;4804599;29;20054;-72
2021/09/07 04:04:39;;;;;;;130.88;54.92;;;13.80;92.00;;;;;;4804457;29;20054;-72
2021/09/07 04:07:08;;;;;;;93.32;46.03;;;13.80;92.10;;;;;;4804387;29;20051;-72
2021/09/07 04:09:36;;;;;;;108.60;48.95;;;13.80;92.20;;;;;;4804805;29;20066;-72
2021/09/07 04:12:04;;;;;;;116.88;52.08;;;13.80;92.20;;;;;;4804354;29;20054;-72
2021/09/07 04:14:33;;;;;;;147.82;55.75;;;13.80;92.20;;;;;;4818068;29;20051;-72
2021/09/07 04:17:02;;;;;;;127.80;55.65;;;13.70;92.30;;;;;;4804986;29;20046;-72
2021/09/07 04:19:31;;;;;;;138.93;56.55;;;13.70;92.30;;;;;;4803508;29;20055;-72
2021/09/07 04:21:59;;;;;;;137.32;54.55;;;13.70;92.30;;;;;;4804532;29;20413;-72
2021/09/07 04:24:27;;;;;;;125.00;54.17;;;13.70;92.30;;;;;;4804511;29;20046;-72
2021/09/07 04:26:55;;;;;;;124.30;54.63;;;13.70;92.30;;;;;;4804412;29;20074;-72
2021/09/07 04:29:23;;;;;;;98.63;46.53;;;13.60;92.40;;;;;;4804923;29;20062;-71
2021/09/07 04:31:50;;;;;;;123.13;52.58;;;13.60;92.40;;;;;;4804455;29;20054;-72
2021/09/07 04:34:19;;;;;;;104.50;50.30;;;13.50;92.40;;;;;;4788254;29;20051;-72
2021/09/07 04:36:47;;;;;;;87.13;44.33;;;13.50;92.40;;;;;;4804708;29;20046;-72
2021/09/07 04:39:15;;;;;;;98.90;48.03;;;13.50;92.50;;;;;;4804554;29;20066;-72
2021/09/07 04:41:44;;;;;;;120.93;51.05;;;13.50;92.40;;;;;;4803159;29;20071;-72
2021/09/07 04:44:14;;;;;;;162.82;62.70;;;13.40;92.40;;;;;;4804196;29;20059;-72
2021/09/07 04:46:42;;;;;;;152.43;57.35;;;13.40;92.60;;;;;;4785448;29;20052;-72
2021/09/07 04:49:10;;;;;;;141.60;58.72;;;13.50;92.60;;;;;;4796301;29;20056;-72
2021/09/07 04:51:37;;;;;;;139.60;57.90;;;13.50;92.60;;;;;;4808777;29;20051;-72
2021/09/07 04:54:05;;;;;;;117.25;49.97;;;13.50;92.60;;;;;;4795374;29;20067;-72
2021/09/07 04:56:32;;;;;;;121.43;52.42;;;13.40;92.60;;;;;;4804436;29;20051;-72
2021/09/07 04:59:00;;;;;;;94.97;45.20;;;13.40;92.60;;;;;;4804335;29;20065;-72
2021/09/07 05:01:28;;;;;;;109.97;48.80;;;13.30;92.70;;;;;;4804406;29;20047;-72
2021/09/07 05:03:56;;;;;;;84.57;41.67;;;13.30;92.70;;;;;;4803735;29;20058;-71
2021/09/07 05:06:25;;;;;;;113.63;51.35;;;13.30;92.80;;;;;;4804119;29;20425;-71
2021/09/07 05:08:52;;;;;;;101.82;47.25;;;13.30;92.70;;;;;;4817884;29;20065;-71
2021/09/07 05:11:20;;;;;;;116.43;52.33;;;13.20;92.70;;;;;;4804074;29;20525;-72
2021/09/07 05:13:48;;;;;;;77.22;41.58;;;13.20;92.80;;;;;;4804311;29;20509;-72
2021/09/07 05:16:16;;;;;;;111.18;48.25;;;13.20;92.80;;;;;;4803298;29;20043;-72
2021/09/07 05:18:44;;;;;;;93.95;45.08;;;13.20;92.70;;;;;;4817573;29;20058;-72
2021/09/07 05:21:12;;;;;;;102.90;48.88;;;13.20;92.70;;;;;;4803757;29;20055;-72
2021/09/07 05:23:40;;;;;;;92.00;46.00;;;13.10;92.80;;;;;;4817942;29;20066;-72
2021/09/07 05:26:08;;;;;;;107.50;50.00;;;13.10;92.80;;;;;;4804376;29;20405;-72
2021/09/07 05:28:36;;;;;;;135.20;53.85;;;13.10;92.90;;;;;;4804496;29;20391;-72
2021/09/07 05:31:14;;;;;;;128.73;52.72;;;13.10;92.90;;;;;;4804080;29;20054;-72
2021/09/07 05:33:43;;;;;;;135.10;52.40;;;13.10;93.00;;;;;;4803863;29;20074;-73
2021/09/07 05:36:11;;;;;;;115.45;51.40;;;13.10;93.00;;;;;;4799130;29;20058;-72
2021/09/07 05:38:39;;;;;;;129.55;55.13;;;13.10;93.00;;;;;;4804998;29;20062;-72
2021/09/07 05:41:06;;;;;;;125.90;50.47;;;13.10;93.10;;;;;;4805120;29;20046;-73
2021/09/07 05:43:34;;;;;;;96.53;44.00;;;13.10;93.10;;;;;;4804569;29;20055;-73
2021/09/07 05:46:02;;;;;;;79.28;40.40;;;13.20;93.00;;;;;;4804474;29;20501;-73
2021/09/07 05:48:30;;;;;;;85.40;42.58;;;13.10;93.00;;;;;;4804975;29;20070;-74
2021/09/07 05:50:58;;;;;;;102.35;48.88;;;13.10;93.10;;;;;;4803970;29;20043;-73
2021/09/07 05:53:26;;;;;;;119.10;53.05;;;13.10;93.10;;;;;;4804012;29;20057;-74
2021/09/07 05:55:53;;;;;;;140.60;57.05;;;13.10;93.10;;;;;;4803553;29;20517;-72
2021/09/07 05:58:21;;;;;;;116.85;53.22;;;13.20;93.10;;;;;;4819612;29;20066;-73
2021/09/07 06:00:48;;;;;;;103.47;47.30;;;13.20;93.10;;;;;;4821146;29;20047;-73
2021/09/07 06:03:16;;;;;;;90.35;43.65;;;13.20;93.00;;;;;;4806932;29;20054;-73
2021/09/07 06:05:44;;;;;;;115.72;49.72;;;13.20;93.00;;;;;;4806338;29;20047;-73
2021/09/07 06:08:12;;;;;;;110.15;49.88;;;13.30;93.00;;;;;;4807252;29;20071;-72
2021/09/07 06:10:40;;;;;;;114.82;52.42;;;13.30;93.00;;;;;;4807019;29;20051;-73
2021/09/07 06:13:08;;;;;;;114.97;52.05;;;13.30;93.00;;;;;;4806845;29;20406;-72
2021/09/07 06:15:39;;;;;;;109.25;51.53;;;13.30;93.00;;;;;;4806966;29;20512;-73
2021/09/07 06:18:06;;;;;;;105.82;49.47;;;13.30;93.00;;;;;;4806758;29;20066;-73
2021/09/07 06:20:34;;;;;;;108.18;50.38;;;13.30;92.90;;;;;;4807281;29;20058;-73
2021/09/07 06:23:02;;;;;;;97.47;48.20;;;13.40;92.90;;;;;;4806893;29;20055;-73
2021/09/07 06:25:30;;;;;;;79.65;41.63;;;13.50;92.90;;;;;;4810122;29;20061;-73
2021/09/07 06:27:58;;;;;;;81.75;42.55;;;13.50;92.90;;;;;;4841779;29;20034;-74
2021/09/07 06:30:25;;;;;;;95.78;47.72;;;13.50;92.80;;;;;;4812443;29;20071;-74
2021/09/07 06:32:53;;;;;;;92.70;47.15;;;13.60;92.70;;;;;;4822449;29;20046;-72
2021/09/07 06:35:20;;;;;;;103.65;46.00;;;13.70;92.70;;;;;;4806869;29;20055;-72
2021/09/07 06:37:48;;;;;;;102.28;49.45;;;13.70;92.60;;;;;;4806188;29;20047;-72
2021/09/07 06:40:16;;;;;;;89.45;44.45;;;13.80;92.50;;;;;;4808864;29;20051;-72
2021/09/07 06:42:44;;;;;;;96.30;48.05;;;13.90;92.40;;;;;;4800657;29;20406;-72
2021/09/07 06:45:12;;;;;;;98.10;47.95;;;13.90;92.40;;;;;;4807043;29;20065;-72
2021/09/07 06:47:40;;;;;;;100.90;48.90;;;14.10;92.30;;;;;;4807244;29;20051;-72
2021/09/07 06:50:11;;;;;;;107.25;49.22;;;14.20;92.20;;;;;;4807827;29;20055;-72
2021/09/07 06:52:39;;;;;;;92.80;47.63;;;14.20;92.10;;;;;;4806915;29;20058;-72
2021/09/07 06:55:08;;;;;;;103.75;49.38;;;14.30;92.00;;;;;;4805803;29;20066;-72
2021/09/07 06:57:35;;;;;;;107.90;49.28;;;14.30;92.00;;;;;;4806492;29;20061;-72
2021/09/07 07:00:04;;;;;;;87.82;44.00;;;14.40;92.00;;;;;;4806048;29;20066;-72
2021/09/07 07:02:38;;;;;;;100.72;46.13;;;14.50;92.00;;;;;;4806002;29;20051;-72
2021/09/07 07:05:07;;;;;;;91.35;44.90;;;14.60;92.00;;;;;;4805875;29;20043;-74
2021/09/07 07:07:36;;;;;;;102.60;46.28;;;14.80;91.90;;;;;;4795576;29;20069;-72
2021/09/07 07:10:04;;;;;;;109.47;48.67;;;14.80;91.80;;;;;;4806948;29;20051;-72
2021/09/07 07:12:33;;;;;;;90.13;46.83;;;14.90;91.80;;;;;;4823934;29;20054;-77
2021/09/07 07:15:01;;;;;;;92.95;46.78;;;15.10;91.70;;;;;;4805947;29;20070;-72
2021/09/07 07:17:28;;;;;;;101.22;49.90;;;15.10;91.60;;;;;;4819368;29;20051;-72
2021/09/07 07:19:56;;;;;;;103.10;51.17;;;15.30;91.60;;;;;;4803147;29;20473;-72
2021/09/07 07:22:25;;;;;;;108.00;53.13;;;15.30;91.50;;;;;;4805811;29;20058;-72
2021/09/07 07:24:53;;;;;;;116.93;57.10;;;15.40;91.50;;;;;;4805801;29;20529;-72
2021/09/07 07:27:21;;;;;;;112.35;56.17;;;15.50;91.60;;;;;;4806036;29;20062;-72
2021/09/07 07:29:49;;;;;;;111.00;53.17;;;15.70;91.60;;;;;;4806104;29;20062;-72
2021/09/07 07:32:16;;;;;;;99.03;52.50;;;15.70;91.50;;;;;;4806142;29;20512;-73
2021/09/07 07:34:44;;;;;;;100.38;51.78;;;15.80;91.40;;;;;;4805994;29;20062;-73
2021/09/07 07:37:12;;;;;;;102.95;53.95;;;16.00;91.40;;;;;;4819655;29;20079;-73
2021/09/07 07:39:40;;;;;;;104.95;53.25;;;16.10;91.20;;;;;;4806179;29;20059;-73
2021/09/07 07:42:08;;;;;;;107.13;55.55;;;16.30;91.20;;;;;;4806123;29;20050;-73
2021/09/07 07:44:35;;;;;;;111.28;55.35;;;16.40;91.10;;;;;;4815604;29;20058;-72
2021/09/07 07:47:03;;;;;;;105.07;53.67;;;16.60;91.10;;;;;;4815665;29;20061;-73
2021/09/07 07:49:30;;;;;;;105.47;52.97;;;16.70;91.10;;;;;;4805862;29;20400;-73
2021/09/07 07:51:58;;;;;;;88.40;50.10;;;16.80;91.00;;;;;;4806021;29;20059;-72
2021/09/07 07:54:26;;;;;;;86.43;47.67;;;16.90;90.90;;;;;;4805838;29;20050;-73
2021/09/07 07:56:53;;;;;;;81.93;45.50;;;17.10;90.80;;;;;;4805959;29;20046;-73
2021/09/07 07:59:21;;;;;;;85.05;46.50;;;17.30;90.70;;;;;;4805230;29;20481;-73
2021/09/07 08:01:48;;;;;;;82.72;47.22;;;17.50;90.40;;;;;;4805819;29;20047;-73
2021/09/07 08:04:16;;;;;;;75.28;42.70;;;17.70;90.20;;;;;;4805792;29;20054;-73
2021/09/07 08:06:44;;;;;;;73.88;41.92;;;17.80;89.90;;;;;;4805815;29;20059;-73
2021/09/07 08:09:12;;;;;;;68.72;40.75;;;18.00;89.60;;;;;;4805542;29;20047;-73
2021/09/07 08:11:39;;;;;;;77.93;41.33;;;18.10;89.30;;;;;;4805639;29;20054;-73
2021/09/07 08:14:07;;;;;;;65.68;39.47;;;18.30;89.00;;;;;;4805493;29;20063;-73
2021/09/07 08:16:35;;;;;;;78.75;39.60;;;18.50;88.60;;;;;;4805087;29;20063;-73
2021/09/07 08:19:03;;;;;;;59.42;36.85;;;18.60;88.30;;;;;;4805134;29;20085;-73
2021/09/07 08:21:30;;;;;;;62.75;38.28;;;18.80;87.90;;;;;;4805287;29;20067;-73
2021/09/07 08:23:58;;;;;;;56.50;35.15;;;19.00;87.50;;;;;;4805303;29;20512;-73
2021/09/07 08:26:26;;;;;;;54.03;34.92;;;19.10;87.10;;;;;;4805252;29;20055;-72
2021/09/07 08:28:53;;;;;;;61.08;36.13;;;19.30;86.60;;;;;;4804768;29;20066;-73
2021/09/07 08:31:21;;;;;;;54.30;34.95;;;19.30;86.00;;;;;;4805177;29;20394;-72
2021/09/07 08:33:49;;;;;;;57.83;34.03;;;19.50;85.60;;;;;;4805062;29;20050;-73
2021/09/07 08:36:17;;;;;;;55.30;33.65;;;19.60;85.10;;;;;;4805074;29;20070;-73
2021/09/07 08:38:45;;;;;;;48.95;32.97;;;19.80;84.60;;;;;;4805174;29;20046;-73
2021/09/07 08:41:17;;;;;;;54.95;33.03;;;19.90;84.10;;;;;;4813088;29;20072;-72
2021/09/07 08:43:49;;;;;;;47.58;30.88;;;20.00;83.80;;;;;;4810334;29;20505;-71
2021/09/07 08:46:18;;;;;;;44.80;29.90;;;20.10;83.50;;;;;;4818379;29;20054;-71
2021/09/07 08:48:49;;;;;;;42.63;29.48;;;20.20;83.10;;;;;;4823258;29;20058;-71
2021/09/07 08:51:18;;;;;;;47.28;28.55;;;20.40;82.80;;;;;;4823203;29;20058;-71
2021/09/07 08:53:47;;;;;;;43.05;28.70;;;20.50;82.50;;;;;;4823459;29;20469;-71
2021/09/07 08:56:14;;;;;;;44.70;27.85;;;20.60;82.00;;;;;;4805161;29;20055;-72
2021/09/07 08:58:42;;;;;;;36.95;25.73;;;20.80;81.40;;;;;;4804709;29;20055;-71
2021/09/07 09:01:14;;;;;;;43.60;25.45;;;20.80;80.70;;;;;;4805009;29;20050;-71
2021/09/07 09:03:44;;;;;;;34.33;24.38;;;20.90;80.40;;;;;;4805064;29;20055;-71
2021/09/07 09:06:12;;;;;;;39.08;23.98;;;21.10;80.20;;;;;;4804429;29;20055;-71
2021/09/07 09:08:42;;;;;;;35.53;23.48;;;21.20;79.90;;;;;;4804670;29;20054;-71
2021/09/07 09:11:11;;;;;;;38.75;24.10;;;21.30;79.60;;;;;;4804815;29;20046;-71
2021/09/07 09:13:47;;;;;;;33.35;23.20;;;21.40;79.00;;;;;;4804928;29;20047;-71
2021/09/07 09:16:16;;;;;;;33.88;22.45;;;21.50;78.50;;;;;;4804799;29;20047;-72
2021/09/07 09:18:46;;;;;;;33.63;21.75;;;21.60;78.20;;;;;;4804214;29;20059;-72
2021/09/07 09:21:29;;;;;;;35.22;21.95;;;21.80;78.00;;;;;;4804829;29;20067;-72
2021/09/07 09:24:20;;;;;;;30.80;22.42;;;21.80;77.10;;;;;;4804781;29;20058;-72
2021/09/07 09:26:50;;;;;;;37.42;23.00;;;21.90;76.70;;;;;;4804750;29;20047;-72
2021/09/07 09:29:33;;;;;;;41.42;21.70;;;21.90;76.40;;;;;;4804791;29;20054;-72
2021/09/07 09:32:13;;;;;;;30.93;20.57;;;22.00;76.10;;;;;;4804603;29;20050;-72
2021/09/07 09:34:42;;;;;;;32.22;20.50;;;22.20;75.90;;;;;;4804506;29;20306;-72
2021/09/07 09:37:12;;;;;;;28.88;19.98;;;22.30;75.60;;;;;;4810683;29;20047;-71
2021/09/07 09:39:41;;;;;;;34.25;20.80;;;22.40;75.30;;;;;;4818442;29;20055;-72
2021/09/07 09:42:13;;;;;;;31.40;19.98;;;22.60;74.70;;;;;;4807955;29;20050;-73
2021/09/07 09:44:42;;;;;;;27.67;19.75;;;22.70;74.10;;;;;;4807964;29;20058;-72
2021/09/07 09:47:10;;;;;;;26.80;18.10;;;22.80;73.30;;;;;;4807819;29;20051;-72
2021/09/07 09:49:38;;;;;;;28.08;17.52;;;22.90;72.80;;;;;;4807457;29;20063;-72
2021/09/07 09:52:08;;;;;;;26.67;17.35;;;23.10;72.30;;;;;;4807979;29;20074;-73
2021/09/07 09:54:39;;;;;;;26.48;18.05;;;23.20;72.00;;;;;;4807710;29;20409;-71
2021/09/07 09:57:06;;;;;;;25.30;17.55;;;23.30;70.90;;;;;;4808043;29;20069;-73
2021/09/07 09:59:34;;;;;;;26.35;17.35;;;23.50;70.30;;;;;;4807760;29;20054;-71
2021/09/07 10:02:02;;;;;;;22.98;17.00;;;23.50;69.60;;;;;;4807612;29;20051;-72
2021/09/07 10:04:30;;;;;;;29.65;17.20;;;23.60;69.20;;;;;;4807728;29;20050;-73
2021/09/07 10:06:58;;;;;;;23.52;17.08;;;23.70;68.70;;;;;;4807933;29;20058;-72
2021/09/07 10:09:27;;;;;;;29.05;18.00;;;23.80;68.50;;;;;;4807541;29;20076;-73
2021/09/07 10:12:02;;;;;;;25.20;17.73;;;23.90;68.50;;;;;;4807637;29;20050;-73
2021/09/07 10:14:33;;;;;;;28.38;18.60;;;24.10;68.00;;;;;;4807799;29;20058;-72
2021/09/07 10:20:13;;;;;;;27.13;17.63;;;24.30;67.00;;;;;;4807413;29;20401;-73
2021/09/07 10:25:54;;;;;;;;;;;24.50;66.50;;;;;;4807908;29;20489;-73
2021/09/07 10:28:42;;;;;;;24.90;17.40;;;24.70;65.60;;;;;;4805878;29;19929;-73
2021/09/07 10:31:13;;;;;;;26.50;17.25;;;24.80;65.30;;;;;;4806326;29;20064;-73
2021/09/07 10:34:00;;;;;;;28.77;17.42;;;24.90;65.30;;;;;;4815316;29;20051;-73
2021/09/07 10:36:31;;;;;;;24.10;16.95;;;25.10;65.30;;;;;;4806866;29;20053;-73
2021/09/07 10:39:01;;;;;;;20.92;15.45;;;25.30;65.00;;;;;;4805953;29;20062;-73
2021/09/07 10:41:29;;;;;;;23.23;16.90;;;25.60;64.30;;;;;;4806518;29;20046;-73
2021/09/07 10:44:20;;;;;;;25.65;16.85;;;25.70;62.50;;;;;;4807011;29;20403;-73
2021/09/07 10:46:55;;;;;;;22.58;16.77;;;25.80;62.30;;;;;;4805362;29;20046;-72
2021/09/07 10:49:40;;;;;;;23.48;16.67;;;25.90;62.50;;;;;;4806043;29;20084;-72
2021/09/07 10:52:11;;;;;;;25.40;16.67;;;26.00;62.30;;;;;;4803832;29;20485;-73
2021/09/07 10:54:48;;;;;;;24.38;16.30;;;26.30;61.70;;;;;;4805714;29;20055;-73
2021/09/07 10:57:34;;;;;;;23.45;16.23;;;26.30;60.20;;;;;;4805795;29;20066;-74
2021/09/07 11:00:09;;;;;;;27.50;15.77;;;26.40;60.20;;;;;;4803201;29;20050;-71
2021/09/07 11:02:44;;;;;;;26.05;16.90;;;26.50;59.20;;;;;;4805964;29;20055;-73
2021/09/07 11:05:36;;;;;;;27.65;16.88;;;26.60;58.80;;;;;;4805714;29;20054;-72
2021/09/07 11:08:19;;;;;;;23.42;16.38;;;26.60;58.80;;;;;;4804315;29;20047;-73
2021/09/07 11:10:54;;;;;;;21.95;16.80;;;26.70;59.10;;;;;;4803164;29;20441;-73
2021/09/07 11:13:24;;;;;;;26.38;15.27;;;26.80;58.80;;;;;;4805336;29;20071;-73
2021/09/07 11:15:54;;;;;;;24.25;16.40;;;26.90;58.70;;;;;;4805430;29;20054;-72
2021/09/07 11:18:25;;;;;;;22.27;15.27;;;27.00;58.40;;;;;;4804047;29;20509;-72
2021/09/07 11:20:56;;;;;;;26.13;15.68;;;27.20;58.00;;;;;;4805081;29;20046;-72
2021/09/07 11:23:32;;;;;;;25.85;16.63;;;27.30;57.50;;;;;;4805085;29;20051;-72
2021/09/07 11:26:06;;;;;;;24.05;15.38;;;27.50;56.80;;;;;;4803579;29;20050;-72
2021/09/07 11:28:36;;;;;;;22.15;15.70;;;27.50;57.00;;;;;;4804953;29;20047;-72
2021/09/07 11:31:06;;;;;;;20.55;16.08;;;27.70;56.20;;;;;;4816382;29;20059;-73
2021/09/07 11:33:35;;;;;;;28.30;15.73;;;27.80;55.70;;;;;;4813483;29;20061;-73
2021/09/07 11:36:08;;;;;;;22.20;14.43;;;27.90;55.30;;;;;;4807717;29;20050;-72
2021/09/07 11:38:41;;;;;;;20.02;13.77;;;28.00;55.10;;;;;;4805639;29;20068;-72
2021/09/07 11:41:22;;;;;;;15.80;12.98;;;28.10;54.70;;;;;;4804849;29;20049;-72
2021/09/07 11:43:55;;;;;;;29.17;14.25;;;28.20;53.20;;;;;;4805039;29;20059;-72
2021/09/07 11:46:29;;;;;;;23.00;15.73;;;28.20;53.30;;;;;;4805515;29;20664;-72
2021/09/07 11:49:08;;;;;;;20.17;14.43;;;28.30;52.90;;;;;;4804813;29;20046;-73
2021/09/07 11:51:39;;;;;;;26.38;15.10;;;28.20;52.90;;;;;;4804851;29;20406;-72
2021/09/07 11:54:14;;;;;;;19.10;14.45;;;28.30;52.80;;;;;;4805334;29;20062;-73
2021/09/07 11:56:52;;;;;;;20.50;14.15;;;28.30;52.50;;;;;;4803934;29;20062;-72
2021/09/07 11:59:20;;;;;;;18.60;13.52;;;28.30;52.40;;;;;;4804205;29;20062;-72
2021/09/07 12:01:52;;;;;;;17.40;12.65;;;28.50;52.40;;;;;;4803974;29;20560;-72
2021/09/07 12:04:22;;;;;;;17.13;12.20;;;28.70;51.90;;;;;;4804638;29;20051;-73
2021/09/07 12:06:52;;;;;;;13.43;9.63;;;28.80;50.40;;;;;;4804590;29;20055;-73
2021/09/07 12:09:22;;;;;;;18.45;10.82;;;28.90;50.30;;;;;;4801207;29;20463;-72
2021/09/07 12:12:05;;;;;;;18.58;10.45;;;29.00;50.20;;;;;;4804515;29;20062;-72
2021/09/07 12:14:43;;;;;;;12.18;7.70;;;29.30;49.60;;;;;;4804512;29;20058;-72
2021/09/07 12:17:17;;;;;;;10.25;7.63;;;29.60;48.80;;;;;;4804259;29;20058;-73
2021/09/07 12:19:49;;;;;;;14.88;8.73;;;29.80;48.10;;;;;;4804924;29;20406;-73
2021/09/07 12:22:28;;;;;;;16.92;9.30;;;30.20;47.70;;;;;;4804692;29;20059;-73
2021/09/07 12:25:04;;;;;;;13.95;8.90;;;30.50;46.60;;;;;;4805007;29;20063;-73
2021/09/07 12:27:46;;;;;;;10.77;6.22;;;30.80;45.70;;;;;;4804924;29;20057;-73
2021/09/07 12:30:30;;;;;;;9.95;8.25;;;31.20;45.00;;;;;;4803576;29;20059;-73
2021/09/07 12:33:02;;;;;;;10.73;8.30;;;31.60;43.50;;;;;;4803522;29;20039;-73
2021/09/07 12:35:33;;;;;;;14.43;7.03;;;31.80;42.40;;;;;;4804701;29;20063;-73
2021/09/07 12:38:04;;;;;;;14.88;8.50;;;32.00;42.30;;;;;;4804846;29;20042;-73
2021/09/07 12:40:32;;;;;;;12.20;7.45;;;32.40;41.10;;;;;;4805028;29;20057;-73
2021/09/07 12:43:11;;;;;;;12.10;7.35;;;32.70;40.50;;;;;;4804911;29;20050;-73
2021/09/07 12:45:39;;;;;;;12.52;8.27;;;33.00;39.90;;;;;;4811500;29;20058;-73
2021/09/07 12:48:07;;;;;;;15.65;8.52;;;33.30;39.50;;;;;;4811946;29;20070;-74
2021/09/07 12:50:34;;;;;;;9.02;7.13;;;33.60;38.70;;;;;;4803805;29;20057;-77
2021/09/07 12:53:05;;;;;;;9.35;7.68;;;33.70;38.40;;;;;;4805031;29;20051;-74